createdAt,value
2023-02-14T00:01:46.105Z,4.60
2023-02-14T00:04:15.563Z,4.50
2023-02-14T00:06:44.683Z,4.50
2023-02-14T00:09:15.180Z,4.40
2023-02-14T00:11:44.125Z,4.40
2023-02-14T00:14:32.820Z,4.30
2023-02-14T00:17:01.886Z,4.30
2023-02-14T00:19:31.502Z,4.30
2023-02-14T00:22:00.071Z,4.20
2023-02-14T00:24:28.827Z,4.20
2023-02-14T00:26:57.394Z,4.20
2023-02-14T00:29:29.900Z,4.30
2023-02-14T00:31:58.706Z,4.20
2023-02-14T00:34:27.969Z,4.20
2023-02-14T00:36:56.672Z,4.10
2023-02-14T00:39:26.065Z,4.10
2023-02-14T00:41:54.694Z,4.10
2023-02-14T00:44:23.312Z,4.00
2023-02-14T00:46:53.499Z,4.00
2023-02-14T00:49:24.971Z,4.00
2023-02-14T00:51:53.465Z,3.90
2023-02-14T00:54:22.030Z,3.80
2023-02-14T00:56:50.590Z,3.80
2023-02-14T00:59:19.275Z,3.80
2023-02-14T01:01:47.908Z,3.70
2023-02-14T01:04:18.149Z,3.70
2023-02-14T01:06:47.678Z,3.60
2023-02-14T01:09:16.281Z,3.60
2023-02-14T01:11:44.913Z,3.50
2023-02-14T01:14:13.518Z,3.50
2023-02-14T01:16:42.157Z,3.50
2023-02-14T01:19:10.719Z,3.50
2023-02-14T01:21:40.580Z,3.40
2023-02-14T01:24:09.523Z,3.40
2023-02-14T01:26:39.459Z,3.30
2023-02-14T01:29:08.383Z,3.30
2023-02-14T01:31:37.468Z,3.20
2023-02-14T01:34:06.393Z,3.20
2023-02-14T01:36:37.569Z,3.20
2023-02-14T01:39:08.822Z,3.10
2023-02-14T01:41:39.625Z,3.10
2023-02-14T01:44:24.909Z,3.10
2023-02-14T01:46:53.917Z,3.10
2023-02-14T01:49:25.640Z,3.10
2023-02-14T01:52:04.097Z,3.10
2023-02-14T01:54:37.063Z,3.10
2023-02-14T01:57:09.606Z,3.10
2023-02-14T01:59:42.871Z,3.00
2023-02-14T02:02:11.699Z,3.00
2023-02-14T02:04:43.719Z,3.20
2023-02-14T02:07:18.690Z,3.00
2023-02-14T02:09:53.737Z,2.90
2023-02-14T02:12:25.797Z,2.90
2023-02-14T02:14:56.658Z,2.90
2023-02-14T02:17:35.047Z,2.90
2023-02-14T02:20:48.573Z,2.90
2023-02-14T02:24:06.807Z,2.90
2023-02-14T02:27:26.026Z,2.80
2023-02-14T02:30:32.543Z,2.80
2023-02-14T02:33:30.891Z,2.70
2023-02-14T02:36:20.586Z,2.70
2023-02-14T02:39:01.633Z,2.60
2023-02-14T02:41:40.744Z,2.60
2023-02-14T02:44:17.652Z,2.60
2023-02-14T02:46:56.297Z,2.60
2023-02-14T02:49:52.805Z,2.60
2023-02-14T02:52:46.152Z,2.60
2023-02-14T02:55:20.967Z,2.50
2023-02-14T02:57:51.169Z,2.50
2023-02-14T03:00:21.450Z,2.50
2023-02-14T03:03:11.430Z,2.50
2023-02-14T03:05:40.756Z,2.50
2023-02-14T03:08:10.778Z,2.50
2023-02-14T03:10:41.097Z,2.40
2023-02-14T03:13:48.290Z,2.40
2023-02-14T03:16:32.666Z,2.40
2023-02-14T03:19:52.706Z,2.40
2023-02-14T03:22:33.084Z,2.40
2023-02-14T03:25:10.587Z,2.40
2023-02-14T03:27:46.379Z,2.40
2023-02-14T03:30:21.491Z,2.40
2023-02-14T03:32:58.040Z,2.40
2023-02-14T03:35:33.751Z,2.30
2023-02-14T03:38:09.194Z,2.30
2023-02-14T03:40:43.446Z,2.30
2023-02-14T03:43:20.116Z,2.30
2023-02-14T03:45:55.569Z,2.30
2023-02-14T03:48:25.863Z,2.30
2023-02-14T03:50:55.974Z,2.30
2023-02-14T03:53:29.267Z,2.30
2023-02-14T03:56:04.028Z,2.30
2023-02-14T03:58:36.701Z,2.40
2023-02-14T04:01:12.085Z,2.40
2023-02-14T04:03:43.663Z,2.40
2023-02-14T04:06:12.447Z,2.40
2023-02-14T04:08:41.082Z,2.40
2023-02-14T04:11:11.049Z,2.40
2023-02-14T04:13:40.329Z,2.40
2023-02-14T04:16:09.102Z,2.40
2023-02-14T04:18:55.394Z,2.40
2023-02-14T04:21:24.099Z,2.50
2023-02-14T04:23:52.741Z,2.50
2023-02-14T04:26:22.719Z,2.50
2023-02-14T04:28:51.298Z,2.60
2023-02-14T04:31:20.076Z,2.70
2023-02-14T04:33:51.178Z,2.80
2023-02-14T04:36:19.750Z,2.80
2023-02-14T04:38:48.274Z,2.90
2023-02-14T04:41:16.832Z,3.00
2023-02-14T04:43:46.777Z,3.00
2023-02-14T04:46:18.344Z,3.10
2023-02-14T04:48:46.910Z,3.10
2023-02-14T04:51:15.512Z,3.20
2023-02-14T04:53:44.110Z,3.20
2023-02-14T04:56:12.614Z,3.20
2023-02-14T04:58:41.203Z,3.30
2023-02-14T05:01:11.201Z,3.30
2023-02-14T05:03:39.758Z,3.30
2023-02-14T05:06:08.389Z,3.40
2023-02-14T05:08:36.975Z,3.40
2023-02-14T05:11:05.915Z,3.50
2023-02-14T05:13:36.871Z,3.50
2023-02-14T05:16:05.926Z,3.50
2023-02-14T05:18:35.899Z,3.60
2023-02-14T05:21:04.838Z,3.60
2023-02-14T05:23:33.471Z,3.70
2023-02-14T05:26:02.103Z,3.70
2023-02-14T05:28:30.672Z,3.70
2023-02-14T05:30:59.736Z,3.70
2023-02-14T05:33:28.840Z,3.70
2023-02-14T05:36:00.109Z,3.80
2023-02-14T05:38:28.711Z,3.80
2023-02-14T05:40:58.365Z,3.80
2023-02-14T05:43:27.350Z,3.80
2023-02-14T05:45:55.909Z,3.90
2023-02-14T05:48:24.776Z,3.90
2023-02-14T05:50:53.540Z,3.90
2023-02-14T05:53:23.699Z,3.90
2023-02-14T05:55:52.231Z,3.90
2023-02-14T05:58:20.804Z,3.90
2023-02-14T06:00:49.512Z,3.90
2023-02-14T06:03:18.285Z,3.90
2023-02-14T06:05:46.990Z,3.90
2023-02-14T06:08:15.573Z,3.90
2023-02-14T06:10:45.618Z,3.80
2023-02-14T06:13:14.183Z,3.80
2023-02-14T06:15:42.755Z,3.80
2023-02-14T06:18:11.332Z,3.80
2023-02-14T06:20:39.885Z,3.80
2023-02-14T06:23:08.499Z,3.80
2023-02-14T06:25:37.194Z,4.00
2023-02-14T06:28:07.183Z,3.80
2023-02-14T06:30:35.805Z,3.80
2023-02-14T06:33:04.496Z,3.80
2023-02-14T06:35:33.096Z,3.80
2023-02-14T06:38:01.709Z,3.80
2023-02-14T06:40:30.278Z,3.80
2023-02-14T06:42:58.827Z,3.80
2023-02-14T06:45:28.837Z,3.80
2023-02-14T06:47:57.389Z,3.80
2023-02-14T06:50:25.922Z,3.80
2023-02-14T06:52:54.414Z,3.80
2023-02-14T06:55:23.078Z,3.80
2023-02-14T06:57:51.706Z,3.80
2023-02-14T07:00:21.423Z,3.70
2023-02-14T07:02:51.415Z,3.70
2023-02-14T07:05:20.127Z,3.70
2023-02-14T07:07:49.033Z,3.70
2023-02-14T07:10:17.800Z,3.70
2023-02-14T07:12:46.794Z,3.70
2023-02-14T07:15:15.441Z,3.80
2023-02-14T07:17:44.223Z,3.80
2023-02-14T07:20:15.081Z,3.80
2023-02-14T07:22:43.962Z,3.80
2023-02-14T07:25:13.242Z,3.80
2023-02-14T07:27:41.921Z,3.90
2023-02-14T07:30:12.366Z,3.90
2023-02-14T07:32:41.454Z,3.90
2023-02-14T07:35:10.423Z,3.90
2023-02-14T07:37:40.365Z,3.90
2023-02-14T07:40:14.855Z,4.10
2023-02-14T07:42:43.990Z,3.90
2023-02-14T07:45:22.026Z,3.90
2023-02-14T07:47:51.978Z,4.00
2023-02-14T07:50:21.237Z,4.00
2023-02-14T07:52:51.344Z,4.00
2023-02-14T07:55:20.438Z,4.10
2023-02-14T07:57:49.996Z,4.10
2023-02-14T08:00:19.702Z,4.10
2023-02-14T08:02:49.389Z,4.20
2023-02-14T08:05:19.064Z,4.20
2023-02-14T08:07:47.715Z,4.30
2023-02-14T08:10:18.088Z,4.40
2023-02-14T08:13:01.794Z,4.40
2023-02-14T08:15:49.826Z,4.50
2023-02-14T08:18:19.573Z,4.60
2023-02-14T08:20:49.857Z,4.60
2023-02-14T08:23:20.041Z,4.70
2023-02-14T08:25:52.031Z,4.70
2023-02-14T08:28:24.384Z,4.80
2023-02-14T08:30:53.892Z,4.90
2023-02-14T08:33:22.928Z,5.00
2023-02-14T08:35:52.817Z,5.10
2023-02-14T08:38:21.616Z,5.10
2023-02-14T08:40:51.575Z,5.10
2023-02-14T08:43:20.098Z,5.30
2023-02-14T08:45:50.483Z,5.40
2023-02-14T08:48:19.059Z,5.40
2023-02-14T08:50:47.680Z,5.50
2023-02-14T08:53:16.275Z,5.50
2023-02-14T08:55:44.918Z,5.60
2023-02-14T08:58:15.258Z,5.70
2023-02-14T09:00:43.936Z,5.80
2023-02-14T09:03:12.930Z,5.80
2023-02-14T09:05:41.611Z,5.90
2023-02-14T09:08:10.228Z,5.90
2023-02-14T09:10:38.970Z,6.00
2023-02-14T09:13:07.639Z,6.10
2023-02-14T09:15:37.528Z,6.10
2023-02-14T09:18:06.395Z,6.20
2023-02-14T09:20:35.014Z,6.30
2023-02-14T09:23:03.693Z,6.40
2023-02-14T09:25:32.486Z,6.40
2023-02-14T09:28:01.128Z,6.50
2023-02-14T09:30:29.872Z,6.60
2023-02-14T09:33:00.295Z,6.60
2023-02-14T09:35:46.135Z,6.70
2023-02-14T09:38:14.686Z,6.70
2023-02-14T09:40:43.797Z,6.70
2023-02-14T09:43:22.378Z,6.80
2023-02-14T09:45:55.417Z,6.80
2023-02-14T09:48:30.757Z,6.90
2023-02-14T09:51:02.083Z,6.90
2023-02-14T09:53:33.621Z,7.00
2023-02-14T09:56:10.192Z,7.10
2023-02-14T09:58:46.965Z,7.20
2023-02-14T10:01:22.276Z,7.30
2023-02-14T10:04:07.399Z,7.40
2023-02-14T10:06:49.040Z,7.50
2023-02-14T10:09:52.021Z,7.50
2023-02-14T10:12:25.124Z,7.60
2023-02-14T10:14:56.500Z,7.70
2023-02-14T10:17:32.355Z,7.80
2023-02-14T10:20:05.771Z,7.90
2023-02-14T10:22:41.096Z,7.90
2023-02-14T10:25:19.436Z,8.00
2023-02-14T10:27:48.813Z,8.10
2023-02-14T10:30:21.295Z,8.20
2023-02-14T10:32:53.411Z,8.20
2023-02-14T10:35:32.314Z,8.40
2023-02-14T10:38:10.117Z,8.50
2023-02-14T10:40:50.171Z,8.50
2023-02-14T10:43:30.750Z,8.60
2023-02-14T10:46:07.833Z,8.80
2023-02-14T10:48:53.931Z,8.90
2023-02-14T10:51:33.872Z,8.90
2023-02-14T10:54:16.098Z,9.00
2023-02-14T10:56:49.354Z,9.00
2023-02-14T10:59:30.039Z,9.10
2023-02-14T11:02:41.945Z,9.10
2023-02-14T11:05:25.349Z,9.20
2023-02-14T11:07:56.349Z,9.30
2023-02-14T11:10:28.255Z,9.40
2023-02-14T11:12:57.106Z,9.40
2023-02-14T11:15:29.021Z,9.50
2023-02-14T11:18:18.623Z,9.60
2023-02-14T11:21:01.660Z,9.60
2023-02-14T11:23:34.969Z,9.70
2023-02-14T11:26:06.478Z,9.80
2023-02-14T11:28:36.217Z,9.80
2023-02-14T11:31:05.301Z,9.80
2023-02-14T11:33:38.944Z,9.90
2023-02-14T11:36:12.897Z,9.90
2023-02-14T11:38:44.493Z,9.90
2023-02-14T11:41:16.206Z,10.00
2023-02-14T11:43:49.118Z,10.00
2023-02-14T11:46:27.563Z,10.10
2023-02-14T11:48:59.178Z,10.10
2023-02-14T11:51:34.816Z,10.20
2023-02-14T11:54:06.681Z,10.20
2023-02-14T11:57:03.462Z,10.20
2023-02-14T11:59:36.711Z,10.20
2023-02-14T12:02:19.638Z,10.30
2023-02-14T12:04:51.088Z,10.30
2023-02-14T12:07:23.490Z,10.30
2023-02-14T12:10:24.979Z,10.40
2023-02-14T12:12:56.692Z,10.40
2023-02-14T12:15:36.727Z,10.40
2023-02-14T12:18:25.798Z,10.50
2023-02-14T12:20:59.409Z,10.50
2023-02-14T12:23:36.167Z,10.50
2023-02-14T12:26:15.146Z,10.60
2023-02-14T12:28:48.714Z,10.60
2023-02-14T12:31:17.603Z,10.60
2023-02-14T12:33:48.976Z,10.60
2023-02-14T12:36:33.519Z,10.70
2023-02-14T12:39:10.230Z,10.80
2023-02-14T12:41:50.220Z,10.80
2023-02-14T12:44:27.093Z,10.80
2023-02-14T12:47:09.331Z,10.90
2023-02-14T12:49:57.790Z,10.90
2023-02-14T12:52:45.236Z,10.90
2023-02-14T12:55:39.983Z,10.90
2023-02-14T12:58:19.331Z,11.00
2023-02-14T13:01:01.145Z,10.90
2023-02-14T13:03:51.532Z,11.00
2023-02-14T13:06:26.958Z,11.00
2023-02-14T13:09:28.247Z,11.00
2023-02-14T13:12:05.966Z,11.00
2023-02-14T13:14:53.256Z,11.10
2023-02-14T13:17:29.643Z,11.10
2023-02-14T13:20:06.743Z,11.10
2023-02-14T13:22:36.583Z,11.10
2023-02-14T13:25:14.248Z,11.20
2023-02-14T13:27:43.370Z,11.20
2023-02-14T13:30:22.575Z,11.20
2023-02-14T13:32:53.593Z,11.20
2023-02-14T13:35:24.992Z,11.20
2023-02-14T13:37:56.876Z,11.20
2023-02-14T13:40:29.218Z,11.20
2023-02-14T13:42:58.995Z,11.30
2023-02-14T13:46:03.903Z,11.20
2023-02-14T13:48:34.313Z,11.30
2023-02-14T13:51:04.760Z,11.20
2023-02-14T13:53:42.288Z,11.30
2023-02-14T13:56:33.952Z,11.30
2023-02-14T13:59:05.822Z,11.30
2023-02-14T14:01:38.992Z,11.30
2023-02-14T14:04:37.496Z,11.30
2023-02-14T14:07:25.592Z,11.30
2023-02-14T14:09:56.336Z,11.30
2023-02-14T14:12:43.664Z,11.40
2023-02-14T14:15:18.499Z,11.40
2023-02-14T14:18:07.213Z,11.30
2023-02-14T14:20:47.898Z,11.30
2023-02-14T14:23:38.458Z,11.30
2023-02-14T14:26:30.090Z,11.30
2023-02-14T14:28:59.690Z,11.40
2023-02-14T14:31:29.600Z,11.40
2023-02-14T14:34:02.466Z,11.30
2023-02-14T14:36:32.408Z,11.40
2023-02-14T14:39:01.106Z,11.40
2023-02-14T14:41:31.678Z,11.30
2023-02-14T14:44:01.239Z,11.30
2023-02-14T14:46:29.963Z,11.30
2023-02-14T14:48:58.823Z,11.30
2023-02-14T14:51:30.714Z,11.30
2023-02-14T14:54:03.254Z,11.30
2023-02-14T14:56:35.890Z,11.30
2023-02-14T14:59:26.815Z,11.30
2023-02-14T15:01:55.704Z,11.20
2023-02-14T15:04:28.512Z,11.20
2023-02-14T15:06:58.996Z,11.10
2023-02-14T15:09:34.399Z,11.10
2023-02-14T15:12:21.327Z,11.10
2023-02-14T15:14:54.669Z,11.00
2023-02-14T15:17:26.861Z,11.00
2023-02-14T15:19:59.100Z,11.00
2023-02-14T15:22:30.373Z,10.90
2023-02-14T15:25:00.445Z,10.90
2023-02-14T15:27:29.442Z,10.90
2023-02-14T15:29:59.765Z,10.80
2023-02-14T15:32:33.126Z,10.80
2023-02-14T15:35:04.636Z,10.80
2023-02-14T15:37:34.360Z,10.70
2023-02-14T15:40:06.818Z,10.60
2023-02-14T15:42:42.056Z,10.60
2023-02-14T15:45:21.274Z,10.60
2023-02-14T15:47:53.833Z,10.50
2023-02-14T15:50:26.061Z,10.50
2023-02-14T15:52:56.679Z,10.40
2023-02-14T15:55:28.618Z,10.40
2023-02-14T15:57:59.633Z,10.30
2023-02-14T16:00:28.616Z,10.30
2023-02-14T16:03:02.732Z,10.20
2023-02-14T16:05:31.290Z,10.10
2023-02-14T16:08:03.567Z,10.10
2023-02-14T16:10:35.428Z,10.00
2023-02-14T16:13:06.538Z,9.90
2023-02-14T16:15:37.087Z,9.90
2023-02-14T16:18:19.048Z,9.80
2023-02-14T16:20:51.071Z,9.70
2023-02-14T16:23:23.055Z,9.70
2023-02-14T16:25:53.182Z,9.60
2023-02-14T16:28:22.263Z,9.50
2023-02-14T16:30:56.129Z,9.40
2023-02-14T16:33:26.882Z,9.30
2023-02-14T16:35:55.925Z,9.20
2023-02-14T16:38:24.489Z,9.10
2023-02-14T16:40:55.468Z,9.00
2023-02-14T16:43:24.166Z,8.90
2023-02-14T16:45:52.896Z,8.80
2023-02-14T16:48:21.692Z,8.80
2023-02-14T16:50:50.421Z,8.70
2023-02-14T16:53:26.332Z,8.60
2023-02-14T16:55:57.936Z,8.50
2023-02-14T16:58:33.083Z,8.50
2023-02-14T17:01:01.987Z,8.40
2023-02-14T17:03:30.827Z,8.30
2023-02-14T17:06:01.062Z,8.30
2023-02-14T17:08:30.146Z,8.20
2023-02-14T17:11:02.075Z,8.20
2023-02-14T17:13:34.497Z,8.20
2023-02-14T17:16:04.576Z,8.10
2023-02-14T17:18:35.098Z,8.00
2023-02-14T17:21:04.934Z,7.90
2023-02-14T17:23:33.686Z,7.90
2023-02-14T17:26:03.939Z,7.90
2023-02-14T17:28:32.487Z,7.80
2023-02-14T17:31:01.870Z,7.80
2023-02-14T17:33:32.746Z,7.70
2023-02-14T17:36:06.684Z,7.60
2023-02-14T17:38:35.920Z,7.60
2023-02-14T17:41:14.287Z,7.60
2023-02-14T17:43:43.067Z,7.50
2023-02-14T17:46:14.109Z,7.40
2023-02-14T17:48:45.333Z,7.40
2023-02-14T17:51:16.122Z,7.30
2023-02-14T17:53:44.982Z,7.30
2023-02-14T17:56:17.948Z,7.20
2023-02-14T17:58:47.744Z,7.20
2023-02-14T18:01:18.775Z,7.10
2023-02-14T18:03:47.591Z,7.10
2023-02-14T18:06:16.294Z,7.00
2023-02-14T18:08:49.346Z,6.90
2023-02-14T18:11:21.276Z,6.80
2023-02-14T18:13:50.267Z,6.80
2023-02-14T18:16:20.088Z,6.70
2023-02-14T18:18:48.982Z,6.70
2023-02-14T18:21:20.902Z,6.60
2023-02-14T18:23:49.963Z,6.60
2023-02-14T18:26:20.268Z,6.50
2023-02-14T18:28:50.949Z,6.40
2023-02-14T18:31:20.316Z,6.40
2023-02-14T18:33:50.695Z,6.30
2023-02-14T18:36:24.105Z,6.30
2023-02-14T18:38:54.692Z,6.20
2023-02-14T18:41:25.346Z,6.20
2023-02-14T18:43:54.237Z,6.10
2023-02-14T18:46:25.384Z,6.10
2023-02-14T18:48:54.443Z,6.00
2023-02-14T18:51:24.776Z,6.00
2023-02-14T18:53:54.687Z,5.90
2023-02-14T18:56:28.611Z,5.90
2023-02-14T18:58:59.207Z,5.80
2023-02-14T19:01:30.525Z,5.90
2023-02-14T19:04:00.686Z,5.80
2023-02-14T19:06:31.795Z,5.70
2023-02-14T19:09:01.424Z,5.70
2023-02-14T19:11:33.822Z,5.70
2023-02-14T19:14:08.357Z,5.60
2023-02-14T19:16:38.655Z,5.60
2023-02-14T19:19:07.448Z,5.50
2023-02-14T19:21:36.741Z,5.50
2023-02-14T19:24:08.285Z,5.40
2023-02-14T19:26:40.953Z,5.40
2023-02-14T19:29:11.290Z,5.30
2023-02-14T19:31:42.446Z,5.40
2023-02-14T19:34:17.521Z,5.30
2023-02-14T19:36:46.471Z,5.20
2023-02-14T19:39:15.956Z,5.20
2023-02-14T19:41:46.693Z,5.20
2023-02-14T19:44:17.052Z,5.10
2023-02-14T19:46:47.847Z,5.20
2023-02-14T19:49:19.094Z,5.10
2023-02-14T19:51:48.645Z,5.00
2023-02-14T19:54:17.164Z,5.10
2023-02-14T19:56:47.865Z,5.00
2023-02-14T19:59:20.126Z,5.00
2023-02-14T20:01:50.970Z,5.00
2023-02-14T20:04:22.242Z,5.00
2023-02-14T20:06:51.415Z,4.90
2023-02-14T20:09:21.704Z,4.90
2023-02-14T20:11:54.407Z,4.90
2023-02-14T20:14:24.878Z,4.90
2023-02-14T20:16:54.713Z,4.90
2023-02-14T20:19:26.938Z,4.90
2023-02-14T20:21:58.076Z,4.80
2023-02-14T20:24:29.299Z,4.80
2023-02-14T20:27:02.527Z,4.80
2023-02-14T20:29:31.942Z,4.70
2023-02-14T20:32:03.658Z,4.80
2023-02-14T20:34:32.378Z,4.70
2023-02-14T20:37:00.936Z,4.70
2023-02-14T20:39:31.077Z,4.70
2023-02-14T20:42:01.946Z,4.70
2023-02-14T20:44:30.776Z,4.60
2023-02-14T20:46:59.673Z,4.60
2023-02-14T20:49:30.771Z,4.60
2023-02-14T20:51:59.889Z,4.60
2023-02-14T20:54:30.144Z,4.60
2023-02-14T20:57:00.024Z,4.50
2023-02-14T20:59:28.895Z,4.50
2023-02-14T21:01:59.482Z,4.40
2023-02-14T21:04:28.846Z,4.40
2023-02-14T21:06:57.951Z,4.40
2023-02-14T21:09:27.071Z,4.30
2023-02-14T21:11:55.601Z,4.20
2023-02-14T21:14:25.444Z,4.20
2023-02-14T21:16:53.888Z,4.20
2023-02-14T21:19:22.412Z,4.20
2023-02-14T21:21:50.916Z,4.20
2023-02-14T21:24:19.468Z,4.10
2023-02-14T21:26:47.989Z,4.10
2023-02-14T21:29:16.539Z,4.10
2023-02-14T21:31:46.583Z,4.00
2023-02-14T21:34:17.154Z,4.00
2023-02-14T21:36:45.807Z,3.90
2023-02-14T21:39:14.793Z,3.90
2023-02-14T21:41:43.362Z,3.80
2023-02-14T21:44:31.879Z,3.80
2023-02-14T21:47:03.505Z,3.70
2023-02-14T21:49:49.753Z,3.70
2023-02-14T21:52:18.343Z,3.70
2023-02-14T21:54:46.923Z,3.70
2023-02-14T21:57:15.531Z,3.60
2023-02-14T21:59:44.108Z,3.60
2023-02-14T22:02:14.173Z,3.50
2023-02-14T22:04:44.258Z,3.40
2023-02-14T22:07:13.037Z,3.40
2023-02-14T22:09:42.137Z,3.40
2023-02-14T22:12:11.006Z,3.30
2023-02-14T22:14:39.881Z,3.30
2023-02-14T22:17:08.814Z,3.20
2023-02-14T22:19:39.153Z,3.20
2023-02-14T22:22:08.011Z,3.20
2023-02-14T22:24:36.671Z,3.10
2023-02-14T22:27:05.480Z,3.10
2023-02-14T22:29:34.118Z,3.10
2023-02-14T22:32:02.757Z,3.10
2023-02-14T22:34:31.430Z,3.00
2023-02-14T22:37:01.417Z,3.10
2023-02-14T22:39:30.030Z,3.10
2023-02-14T22:41:58.571Z,3.00
2023-02-14T22:44:27.275Z,3.00
2023-02-14T22:46:55.824Z,3.00
2023-02-14T22:49:24.464Z,3.00
2023-02-14T22:51:52.999Z,3.00
2023-02-14T22:54:23.236Z,3.00
2023-02-14T22:56:52.073Z,2.90
2023-02-14T22:59:22.738Z,2.90
2023-02-14T23:01:52.859Z,3.20
2023-02-14T23:04:24.477Z,2.90
2023-02-14T23:06:54.175Z,3.00
2023-02-14T23:09:24.894Z,3.00
2023-02-14T23:11:53.419Z,3.00
2023-02-14T23:14:39.527Z,3.00
2023-02-14T23:17:25.866Z,3.00
2023-02-14T23:20:11.856Z,3.00
2023-02-14T23:22:41.668Z,3.00
2023-02-14T23:25:13.218Z,3.00
2023-02-14T23:27:45.266Z,3.00
2023-02-14T23:30:16.232Z,3.00
2023-02-14T23:32:44.875Z,3.00
2023-02-14T23:35:13.741Z,3.10
2023-02-14T23:37:42.762Z,3.10
2023-02-14T23:40:13.320Z,3.10
2023-02-14T23:42:41.952Z,3.10
2023-02-14T23:45:27.914Z,3.10
2023-02-14T23:47:56.553Z,3.00
2023-02-14T23:50:25.162Z,3.00
2023-02-14T23:52:53.639Z,3.00
2023-02-14T23:55:23.630Z,3.00
2023-02-14T23:57:52.294Z,3.00
